sensor_id;sensor_type;location;lat;lon;timestamp;P1;durP1;ratioP1;P2;durP2;ratioP2
18711;SDS011;9485;49.386;8.674;2023-02-11T00:03:19;35.73;;;20.00;;
18711;SDS011;9485;49.386;8.674;2023-02-11T00:08:39;38.70;;;20.33;;
18711;SDS011;9485;49.386;8.674;2023-02-11T00:14:02;33.27;;;19.77;;
18711;SDS011;9485;49.386;8.674;2023-02-11T00:19:26;32.80;;;19.27;;
18711;SDS011;9485;49.386;8.674;2023-02-11T00:24:47;34.03;;;19.47;;
18711;SDS011;9485;49.386;8.674;2023-02-11T00:30:09;34.57;;;21.27;;
18711;SDS011;9485;49.386;8.674;2023-02-11T00:35:30;31.70;;;19.57;;
18711;SDS011;9485;49.386;8.674;2023-02-11T00:40:52;39.03;;;19.60;;
18711;SDS011;9485;49.386;8.674;2023-02-11T00:46:14;30.67;;;17.10;;
18711;SDS011;9485;49.386;8.674;2023-02-11T00:51:35;27.53;;;17.20;;
18711;SDS011;9485;49.386;8.674;2023-02-11T00:56:56;30.23;;;17.43;;
18711;SDS011;9485;49.386;8.674;2023-02-11T01:02:18;30.07;;;16.67;;
18711;SDS011;9485;49.386;8.674;2023-02-11T01:07:38;26.30;;;16.47;;
18711;SDS011;9485;49.386;8.674;2023-02-11T01:12:59;28.97;;;18.20;;
18711;SDS011;9485;49.386;8.674;2023-02-11T01:18:21;28.37;;;16.50;;
18711;SDS011;9485;49.386;8.674;2023-02-11T01:23:43;26.70;;;16.77;;
18711;SDS011;9485;49.386;8.674;2023-02-11T01:29:03;26.40;;;15.00;;
18711;SDS011;9485;49.386;8.674;2023-02-11T01:34:26;28.53;;;17.20;;
18711;SDS011;9485;49.386;8.674;2023-02-11T01:39:46;28.43;;;17.03;;
18711;SDS011;9485;49.386;8.674;2023-02-11T01:51:17;27.80;;;17.13;;
18711;SDS011;9485;49.386;8.674;2023-02-11T01:56:45;29.53;;;17.70;;
18711;SDS011;9485;49.386;8.674;2023-02-11T02:02:29;28.20;;;17.57;;
18711;SDS011;9485;49.386;8.674;2023-02-11T02:08:04;26.57;;;17.47;;
18711;SDS011;9485;49.386;8.674;2023-02-11T02:13:33;29.13;;;18.20;;
18711;SDS011;9485;49.386;8.674;2023-02-11T02:18:55;29.63;;;18.60;;
18711;SDS011;9485;49.386;8.674;2023-02-11T02:24:59;30.27;;;19.70;;
18711;SDS011;9485;49.386;8.674;2023-02-11T02:31:06;30.03;;;18.50;;
18711;SDS011;9485;49.386;8.674;2023-02-11T02:36:59;34.37;;;20.07;;
18711;SDS011;9485;49.386;8.674;2023-02-11T02:42:28;35.20;;;21.57;;
18711;SDS011;9485;49.386;8.674;2023-02-11T02:47:49;33.57;;;20.83;;
18711;SDS011;9485;49.386;8.674;2023-02-11T02:53:14;30.10;;;21.30;;
18711;SDS011;9485;49.386;8.674;2023-02-11T02:58:57;31.83;;;20.87;;
18711;SDS011;9485;49.386;8.674;2023-02-11T03:04:41;34.67;;;20.83;;
18711;SDS011;9485;49.386;8.674;2023-02-11T03:10:16;31.20;;;19.40;;
18711;SDS011;9485;49.386;8.674;2023-02-11T03:15:43;32.23;;;19.97;;
18711;SDS011;9485;49.386;8.674;2023-02-11T03:21:08;32.77;;;19.97;;
18711;SDS011;9485;49.386;8.674;2023-02-11T03:26:34;31.07;;;18.93;;
18711;SDS011;9485;49.386;8.674;2023-02-11T03:32:03;31.33;;;19.50;;
18711;SDS011;9485;49.386;8.674;2023-02-11T03:37:30;33.70;;;20.57;;
18711;SDS011;9485;49.386;8.674;2023-02-11T03:42:59;28.70;;;18.67;;
18711;SDS011;9485;49.386;8.674;2023-02-11T03:48:27;30.60;;;19.07;;
18711;SDS011;9485;49.386;8.674;2023-02-11T03:53:51;27.57;;;18.37;;
18711;SDS011;9485;49.386;8.674;2023-02-11T03:59:19;28.90;;;19.47;;
18711;SDS011;9485;49.386;8.674;2023-02-11T04:04:40;34.03;;;20.67;;
18711;SDS011;9485;49.386;8.674;2023-02-11T04:10:01;31.40;;;21.17;;
18711;SDS011;9485;49.386;8.674;2023-02-11T04:15:23;33.43;;;20.47;;
18711;SDS011;9485;49.386;8.674;2023-02-11T04:20:44;34.03;;;21.13;;
18711;SDS011;9485;49.386;8.674;2023-02-11T04:26:04;33.27;;;20.50;;
18711;SDS011;9485;49.386;8.674;2023-02-11T04:31:26;34.40;;;21.23;;
18711;SDS011;9485;49.386;8.674;2023-02-11T04:36:47;34.90;;;21.53;;
18711;SDS011;9485;49.386;8.674;2023-02-11T04:42:08;36.43;;;22.03;;
18711;SDS011;9485;49.386;8.674;2023-02-11T04:47:33;36.40;;;22.73;;
18711;SDS011;9485;49.386;8.674;2023-02-11T04:52:55;35.57;;;21.33;;
18711;SDS011;9485;49.386;8.674;2023-02-11T04:58:16;35.77;;;22.07;;
18711;SDS011;9485;49.386;8.674;2023-02-11T05:03:39;40.23;;;23.83;;
18711;SDS011;9485;49.386;8.674;2023-02-11T05:09:01;32.80;;;21.30;;
18711;SDS011;9485;49.386;8.674;2023-02-11T05:14:22;35.33;;;20.90;;
18711;SDS011;9485;49.386;8.674;2023-02-11T05:19:44;32.50;;;20.43;;
18711;SDS011;9485;49.386;8.674;2023-02-11T05:25:04;29.97;;;19.40;;
18711;SDS011;9485;49.386;8.674;2023-02-11T05:30:25;34.13;;;20.57;;
18711;SDS011;9485;49.386;8.674;2023-02-11T05:35:48;33.70;;;20.43;;
18711;SDS011;9485;49.386;8.674;2023-02-11T05:41:09;30.53;;;19.40;;
18711;SDS011;9485;49.386;8.674;2023-02-11T05:46:30;34.77;;;20.10;;
18711;SDS011;9485;49.386;8.674;2023-02-11T05:51:52;29.73;;;19.47;;
18711;SDS011;9485;49.386;8.674;2023-02-11T05:57:13;32.20;;;19.80;;
18711;SDS011;9485;49.386;8.674;2023-02-11T06:02:34;30.90;;;18.20;;
18711;SDS011;9485;49.386;8.674;2023-02-11T06:07:56;30.43;;;18.97;;
18711;SDS011;9485;49.386;8.674;2023-02-11T06:13:17;28.23;;;17.77;;
18711;SDS011;9485;49.386;8.674;2023-02-11T06:18:38;25.47;;;17.33;;
18711;SDS011;9485;49.386;8.674;2023-02-11T06:24:00;29.27;;;19.00;;
18711;SDS011;9485;49.386;8.674;2023-02-11T06:29:20;29.67;;;19.70;;
18711;SDS011;9485;49.386;8.674;2023-02-11T06:34:41;31.90;;;19.77;;
18711;SDS011;9485;49.386;8.674;2023-02-11T06:40:03;32.80;;;19.73;;
18711;SDS011;9485;49.386;8.674;2023-02-11T06:45:25;27.93;;;17.60;;
18711;SDS011;9485;49.386;8.674;2023-02-11T06:50:45;33.47;;;19.90;;
18711;SDS011;9485;49.386;8.674;2023-02-11T06:56:08;29.37;;;17.53;;
18711;SDS011;9485;49.386;8.674;2023-02-11T07:01:31;26.70;;;17.57;;
18711;SDS011;9485;49.386;8.674;2023-02-11T07:06:52;29.17;;;18.23;;
18711;SDS011;9485;49.386;8.674;2023-02-11T07:12:14;29.37;;;18.63;;
18711;SDS011;9485;49.386;8.674;2023-02-11T07:17:34;32.37;;;20.03;;
18711;SDS011;9485;49.386;8.674;2023-02-11T07:22:55;29.87;;;18.97;;
18711;SDS011;9485;49.386;8.674;2023-02-11T07:28:18;28.50;;;18.23;;
18711;SDS011;9485;49.386;8.674;2023-02-11T07:33:39;31.30;;;18.43;;
18711;SDS011;9485;49.386;8.674;2023-02-11T07:39:01;31.50;;;19.07;;
18711;SDS011;9485;49.386;8.674;2023-02-11T07:44:22;32.83;;;19.70;;
18711;SDS011;9485;49.386;8.674;2023-02-11T07:49:44;33.37;;;19.23;;
18711;SDS011;9485;49.386;8.674;2023-02-11T07:55:05;31.90;;;19.63;;
18711;SDS011;9485;49.386;8.674;2023-02-11T08:00:29;30.27;;;19.43;;
18711;SDS011;9485;49.386;8.674;2023-02-11T08:05:50;30.10;;;19.93;;
18711;SDS011;9485;49.386;8.674;2023-02-11T08:11:11;31.23;;;18.83;;
18711;SDS011;9485;49.386;8.674;2023-02-11T08:16:35;32.57;;;19.60;;
18711;SDS011;9485;49.386;8.674;2023-02-11T08:21:57;31.43;;;19.23;;
18711;SDS011;9485;49.386;8.674;2023-02-11T08:27:19;34.30;;;19.30;;
18711;SDS011;9485;49.386;8.674;2023-02-11T08:32:41;29.57;;;19.60;;
18711;SDS011;9485;49.386;8.674;2023-02-11T08:38:01;28.67;;;18.93;;
18711;SDS011;9485;49.386;8.674;2023-02-11T08:43:22;26.87;;;18.03;;
18711;SDS011;9485;49.386;8.674;2023-02-11T08:48:44;30.23;;;18.47;;
18711;SDS011;9485;49.386;8.674;2023-02-11T08:54:05;33.37;;;20.73;;
18711;SDS011;9485;49.386;8.674;2023-02-11T08:59:28;32.20;;;19.47;;
18711;SDS011;9485;49.386;8.674;2023-02-11T09:04:50;28.33;;;19.00;;
18711;SDS011;9485;49.386;8.674;2023-02-11T09:10:10;24.80;;;17.27;;
18711;SDS011;9485;49.386;8.674;2023-02-11T09:15:31;27.67;;;18.77;;
18711;SDS011;9485;49.386;8.674;2023-02-11T09:20:57;24.37;;;17.53;;
18711;SDS011;9485;49.386;8.674;2023-02-11T09:26:23;25.10;;;17.43;;
18711;SDS011;9485;49.386;8.674;2023-02-11T09:31:46;26.50;;;17.87;;
18711;SDS011;9485;49.386;8.674;2023-02-11T09:37:08;28.30;;;18.67;;
18711;SDS011;9485;49.386;8.674;2023-02-11T09:42:42;26.73;;;18.80;;
18711;SDS011;9485;49.386;8.674;2023-02-11T09:48:09;27.90;;;17.90;;
18711;SDS011;9485;49.386;8.674;2023-02-11T09:53:38;24.37;;;17.83;;
18711;SDS011;9485;49.386;8.674;2023-02-11T09:59:01;22.53;;;17.10;;
18711;SDS011;9485;49.386;8.674;2023-02-11T10:04:28;25.20;;;18.23;;
18711;SDS011;9485;49.386;8.674;2023-02-11T10:10:27;21.80;;;16.20;;
18711;SDS011;9485;49.386;8.674;2023-02-11T10:16:07;22.57;;;16.60;;
18711;SDS011;9485;49.386;8.674;2023-02-11T10:24:14;22.83;;;15.47;;
18711;SDS011;9485;49.386;8.674;2023-02-11T10:29:37;19.90;;;14.40;;
18711;SDS011;9485;49.386;8.674;2023-02-11T10:35:09;20.10;;;15.00;;
18711;SDS011;9485;49.386;8.674;2023-02-11T10:40:36;21.43;;;14.67;;
18711;SDS011;9485;49.386;8.674;2023-02-11T10:45:57;18.83;;;13.43;;
18711;SDS011;9485;49.386;8.674;2023-02-11T10:51:24;21.60;;;14.50;;
18711;SDS011;9485;49.386;8.674;2023-02-11T10:56:48;17.27;;;12.50;;
18711;SDS011;9485;49.386;8.674;2023-02-11T11:02:20;16.30;;;12.10;;
18711;SDS011;9485;49.386;8.674;2023-02-11T11:07:50;15.97;;;12.10;;
18711;SDS011;9485;49.386;8.674;2023-02-11T11:13:24;17.07;;;12.43;;
18711;SDS011;9485;49.386;8.674;2023-02-11T11:18:49;14.93;;;10.93;;
18711;SDS011;9485;49.386;8.674;2023-02-11T11:24:16;15.50;;;11.80;;
18711;SDS011;9485;49.386;8.674;2023-02-11T11:29:44;12.37;;;10.10;;
18711;SDS011;9485;49.386;8.674;2023-02-11T11:35:20;16.10;;;11.17;;
18711;SDS011;9485;49.386;8.674;2023-02-11T11:40:45;14.73;;;11.77;;
18711;SDS011;9485;49.386;8.674;2023-02-11T11:46:44;17.57;;;12.93;;
18711;SDS011;9485;49.386;8.674;2023-02-11T11:52:16;18.50;;;12.67;;
18711;SDS011;9485;49.386;8.674;2023-02-11T11:57:51;15.10;;;11.63;;
18711;SDS011;9485;49.386;8.674;2023-02-11T12:03:22;15.77;;;11.40;;
18711;SDS011;9485;49.386;8.674;2023-02-11T12:09:13;17.90;;;12.73;;
18711;SDS011;9485;49.386;8.674;2023-02-11T12:14:47;16.93;;;12.20;;
18711;SDS011;9485;49.386;8.674;2023-02-11T12:20:22;16.47;;;12.30;;
18711;SDS011;9485;49.386;8.674;2023-02-11T12:25:58;16.80;;;11.73;;
18711;SDS011;9485;49.386;8.674;2023-02-11T12:31:31;16.57;;;11.53;;
18711;SDS011;9485;49.386;8.674;2023-02-11T12:37:13;13.57;;;10.00;;
18711;SDS011;9485;49.386;8.674;2023-02-11T12:42:49;14.07;;;10.40;;
18711;SDS011;9485;49.386;8.674;2023-02-11T12:48:51;13.37;;;10.10;;
18711;SDS011;9485;49.386;8.674;2023-02-11T12:54:58;12.87;;;10.47;;
18711;SDS011;9485;49.386;8.674;2023-02-11T13:00:28;13.53;;;10.13;;
18711;SDS011;9485;49.386;8.674;2023-02-11T13:06:00;14.87;;;10.03;;
18711;SDS011;9485;49.386;8.674;2023-02-11T13:11:30;14.67;;;11.53;;
18711;SDS011;9485;49.386;8.674;2023-02-11T13:16:57;12.30;;;10.37;;
18711;SDS011;9485;49.386;8.674;2023-02-11T13:22:18;15.03;;;11.23;;
18711;SDS011;9485;49.386;8.674;2023-02-11T13:27:50;14.83;;;11.03;;
18711;SDS011;9485;49.386;8.674;2023-02-11T13:33:19;13.93;;;11.03;;
18711;SDS011;9485;49.386;8.674;2023-02-11T13:38:52;15.60;;;11.73;;
18711;SDS011;9485;49.386;8.674;2023-02-11T13:44:20;16.43;;;11.40;;
18711;SDS011;9485;49.386;8.674;2023-02-11T13:49:48;15.73;;;11.87;;
18711;SDS011;9485;49.386;8.674;2023-02-11T13:55:14;13.90;;;10.97;;
18711;SDS011;9485;49.386;8.674;2023-02-11T14:00:44;16.17;;;12.60;;
18711;SDS011;9485;49.386;8.674;2023-02-11T14:06:09;18.00;;;11.70;;
18711;SDS011;9485;49.386;8.674;2023-02-11T14:12:14;17.93;;;12.70;;
18711;SDS011;9485;49.386;8.674;2023-02-11T14:17:50;17.27;;;12.80;;
18711;SDS011;9485;49.386;8.674;2023-02-11T14:23:21;16.10;;;12.20;;
18711;SDS011;9485;49.386;8.674;2023-02-11T14:28:46;18.47;;;12.70;;
18711;SDS011;9485;49.386;8.674;2023-02-11T14:34:27;16.07;;;11.50;;
18711;SDS011;9485;49.386;8.674;2023-02-11T14:40:13;13.70;;;9.60;;
18711;SDS011;9485;49.386;8.674;2023-02-11T14:45:52;17.07;;;11.00;;
18711;SDS011;9485;49.386;8.674;2023-02-11T14:51:18;13.40;;;9.70;;
18711;SDS011;9485;49.386;8.674;2023-02-11T14:56:43;14.77;;;10.63;;
18711;SDS011;9485;49.386;8.674;2023-02-11T15:02:12;14.03;;;10.90;;
18711;SDS011;9485;49.386;8.674;2023-02-11T15:07:44;14.50;;;10.33;;
18711;SDS011;9485;49.386;8.674;2023-02-11T15:13:08;13.77;;;10.17;;
18711;SDS011;9485;49.386;8.674;2023-02-11T15:18:39;15.40;;;9.97;;
18711;SDS011;9485;49.386;8.674;2023-02-11T15:24:19;14.00;;;9.10;;
18711;SDS011;9485;49.386;8.674;2023-02-11T15:29:45;17.83;;;9.67;;
18711;SDS011;9485;49.386;8.674;2023-02-11T15:35:09;14.03;;;8.53;;
18711;SDS011;9485;49.386;8.674;2023-02-11T15:40:34;15.40;;;8.57;;
18711;SDS011;9485;49.386;8.674;2023-02-11T15:45:57;14.70;;;8.47;;
18711;SDS011;9485;49.386;8.674;2023-02-11T15:51:21;11.83;;;8.83;;
18711;SDS011;9485;49.386;8.674;2023-02-11T15:56:48;13.67;;;9.60;;
18711;SDS011;9485;49.386;8.674;2023-02-11T16:02:15;14.73;;;10.10;;
18711;SDS011;9485;49.386;8.674;2023-02-11T16:07:43;12.50;;;9.03;;
18711;SDS011;9485;49.386;8.674;2023-02-11T16:13:17;14.23;;;9.53;;
18711;SDS011;9485;49.386;8.674;2023-02-11T16:18:38;13.97;;;9.00;;
18711;SDS011;9485;49.386;8.674;2023-02-11T16:24:14;15.43;;;10.17;;
18711;SDS011;9485;49.386;8.674;2023-02-11T16:29:42;16.20;;;10.80;;
18711;SDS011;9485;49.386;8.674;2023-02-11T16:35:09;17.60;;;11.20;;
18711;SDS011;9485;49.386;8.674;2023-02-11T16:40:30;20.73;;;11.40;;
18711;SDS011;9485;49.386;8.674;2023-02-11T16:45:52;18.27;;;12.13;;
18711;SDS011;9485;49.386;8.674;2023-02-11T16:51:13;16.93;;;10.57;;
18711;SDS011;9485;49.386;8.674;2023-02-11T16:56:34;18.10;;;11.60;;
18711;SDS011;9485;49.386;8.674;2023-02-11T17:01:56;19.07;;;12.30;;
18711;SDS011;9485;49.386;8.674;2023-02-11T17:07:16;19.80;;;13.40;;
18711;SDS011;9485;49.386;8.674;2023-02-11T17:12:37;16.73;;;11.60;;
18711;SDS011;9485;49.386;8.674;2023-02-11T17:17:59;17.57;;;11.90;;
18711;SDS011;9485;49.386;8.674;2023-02-11T17:23:20;17.13;;;10.87;;
18711;SDS011;9485;49.386;8.674;2023-02-11T17:28:40;18.03;;;11.57;;
18711;SDS011;9485;49.386;8.674;2023-02-11T17:34:02;17.87;;;11.70;;
18711;SDS011;9485;49.386;8.674;2023-02-11T17:39:23;17.57;;;10.93;;
18711;SDS011;9485;49.386;8.674;2023-02-11T17:44:43;19.40;;;12.10;;
18711;SDS011;9485;49.386;8.674;2023-02-11T17:50:06;16.43;;;11.10;;
18711;SDS011;9485;49.386;8.674;2023-02-11T17:55:29;20.13;;;13.10;;
18711;SDS011;9485;49.386;8.674;2023-02-11T18:00:51;16.60;;;11.57;;
18711;SDS011;9485;49.386;8.674;2023-02-11T18:06:18;18.70;;;12.10;;
18711;SDS011;9485;49.386;8.674;2023-02-11T18:11:39;22.10;;;13.73;;
18711;SDS011;9485;49.386;8.674;2023-02-11T18:17:00;19.80;;;11.37;;
18711;SDS011;9485;49.386;8.674;2023-02-11T18:22:22;22.43;;;14.00;;
18711;SDS011;9485;49.386;8.674;2023-02-11T18:27:43;22.87;;;15.40;;
18711;SDS011;9485;49.386;8.674;2023-02-11T18:33:04;26.60;;;17.97;;
18711;SDS011;9485;49.386;8.674;2023-02-11T18:38:27;28.10;;;18.60;;
18711;SDS011;9485;49.386;8.674;2023-02-11T18:43:48;24.60;;;16.47;;
18711;SDS011;9485;49.386;8.674;2023-02-11T18:49:09;26.23;;;16.83;;
18711;SDS011;9485;49.386;8.674;2023-02-11T18:54:32;25.40;;;16.10;;
18711;SDS011;9485;49.386;8.674;2023-02-11T18:59:52;23.07;;;14.57;;
18711;SDS011;9485;49.386;8.674;2023-02-11T19:05:13;20.20;;;13.10;;
18711;SDS011;9485;49.386;8.674;2023-02-11T19:10:37;19.23;;;11.47;;
18711;SDS011;9485;49.386;8.674;2023-02-11T19:16:03;22.33;;;13.73;;
18711;SDS011;9485;49.386;8.674;2023-02-11T19:21:26;21.60;;;13.97;;
18711;SDS011;9485;49.386;8.674;2023-02-11T19:26:49;23.63;;;14.27;;
18711;SDS011;9485;49.386;8.674;2023-02-11T19:32:11;21.60;;;14.33;;
18711;SDS011;9485;49.386;8.674;2023-02-11T19:37:33;24.50;;;15.90;;
18711;SDS011;9485;49.386;8.674;2023-02-11T19:42:55;23.83;;;15.30;;
18711;SDS011;9485;49.386;8.674;2023-02-11T19:48:16;18.70;;;13.87;;
18711;SDS011;9485;49.386;8.674;2023-02-11T19:53:36;21.10;;;13.27;;
18711;SDS011;9485;49.386;8.674;2023-02-11T19:59:00;22.03;;;12.67;;
18711;SDS011;9485;49.386;8.674;2023-02-11T20:04:21;20.37;;;12.67;;
18711;SDS011;9485;49.386;8.674;2023-02-11T20:09:43;18.20;;;12.53;;
18711;SDS011;9485;49.386;8.674;2023-02-11T20:15:05;20.97;;;12.63;;
18711;SDS011;9485;49.386;8.674;2023-02-11T20:20:26;19.53;;;12.73;;
18711;SDS011;9485;49.386;8.674;2023-02-11T20:25:47;22.33;;;13.73;;
18711;SDS011;9485;49.386;8.674;2023-02-11T20:31:09;20.60;;;13.90;;
18711;SDS011;9485;49.386;8.674;2023-02-11T20:36:32;19.63;;;13.23;;
18711;SDS011;9485;49.386;8.674;2023-02-11T20:41:55;26.57;;;14.17;;
18711;SDS011;9485;49.386;8.674;2023-02-11T20:47:17;23.33;;;15.63;;
18711;SDS011;9485;49.386;8.674;2023-02-11T20:52:38;21.43;;;14.93;;
18711;SDS011;9485;49.386;8.674;2023-02-11T20:57:59;25.60;;;15.83;;
18711;SDS011;9485;49.386;8.674;2023-02-11T21:03:20;25.60;;;15.70;;
18711;SDS011;9485;49.386;8.674;2023-02-11T21:08:41;26.20;;;17.23;;
18711;SDS011;9485;49.386;8.674;2023-02-11T21:14:02;25.37;;;16.87;;
18711;SDS011;9485;49.386;8.674;2023-02-11T21:19:24;27.17;;;16.33;;
18711;SDS011;9485;49.386;8.674;2023-02-11T21:24:45;29.13;;;17.50;;
18711;SDS011;9485;49.386;8.674;2023-02-11T21:30:06;26.20;;;16.07;;
18711;SDS011;9485;49.386;8.674;2023-02-11T21:35:31;26.37;;;17.60;;
18711;SDS011;9485;49.386;8.674;2023-02-11T21:40:53;25.93;;;16.83;;
18711;SDS011;9485;49.386;8.674;2023-02-11T21:46:14;27.07;;;17.30;;
18711;SDS011;9485;49.386;8.674;2023-02-11T21:51:37;25.67;;;16.30;;
18711;SDS011;9485;49.386;8.674;2023-02-11T21:56:58;24.17;;;16.00;;
18711;SDS011;9485;49.386;8.674;2023-02-11T22:02:20;23.27;;;15.33;;
18711;SDS011;9485;49.386;8.674;2023-02-11T22:07:43;26.37;;;15.63;;
18711;SDS011;9485;49.386;8.674;2023-02-11T22:13:03;24.67;;;14.70;;
18711;SDS011;9485;49.386;8.674;2023-02-11T22:18:24;25.20;;;14.77;;
18711;SDS011;9485;49.386;8.674;2023-02-11T22:23:49;25.50;;;16.27;;
18711;SDS011;9485;49.386;8.674;2023-02-11T22:29:12;26.63;;;16.47;;
18711;SDS011;9485;49.386;8.674;2023-02-11T22:34:33;24.93;;;15.50;;
18711;SDS011;9485;49.386;8.674;2023-02-11T22:39:55;24.07;;;15.67;;
18711;SDS011;9485;49.386;8.674;2023-02-11T22:45:16;25.13;;;17.27;;
18711;SDS011;9485;49.386;8.674;2023-02-11T22:50:36;23.77;;;15.70;;
18711;SDS011;9485;49.386;8.674;2023-02-11T22:56:01;24.43;;;16.03;;
18711;SDS011;9485;49.386;8.674;2023-02-11T23:01:23;23.87;;;15.63;;
18711;SDS011;9485;49.386;8.674;2023-02-11T23:06:43;22.03;;;13.07;;
18711;SDS011;9485;49.386;8.674;2023-02-11T23:12:07;19.77;;;14.20;;
18711;SDS011;9485;49.386;8.674;2023-02-11T23:17:28;21.97;;;14.03;;
18711;SDS011;9485;49.386;8.674;2023-02-11T23:22:49;20.27;;;14.10;;
18711;SDS011;9485;49.386;8.674;2023-02-11T23:28:11;19.97;;;13.50;;
18711;SDS011;9485;49.386;8.674;2023-02-11T23:33:34;22.33;;;14.00;;
18711;SDS011;9485;49.386;8.674;2023-02-11T23:39:01;19.27;;;11.83;;
18711;SDS011;9485;49.386;8.674;2023-02-11T23:44:30;19.10;;;12.83;;
18711;SDS011;9485;49.386;8.674;2023-02-11T23:49:52;15.53;;;11.73;;
18711;SDS011;9485;49.386;8.674;2023-02-11T23:55:14;19.10;;;12.87;;
